• Join FlightAware (Why Join?)
  • Login
  • US Flag 
06:17AM EST


 

Airport Tracker/Info


-or-


 

Live Flight TrackerFlight Track Log ✈ N315L ✈ 07-Jul-2013 ✈ KBTP - KCGS

Flight Track Log - Related Links

Times and Time Zones

All times are in EDT time to prevent confusion due to time zone crossing. See the N315L flight status page for this flight to view local times or setup timezone preferences in your user account.

Time Position Orientation Groundspeed Altitude Reporting Facility
EDT Latitude Longitude Course Direction KTS MPH feet Rate Location/Type
07:32PM 40.7383 -79.8706 123° Southeast 115 132 4,100  Level Cleveland Center
07:33PM 40.7317 -79.8322 103° East 126 145 4,900 660 Climbing Cleveland Center
07:34PM 40.7231 -79.7914 106° East 121 139 5,500 660 Climbing Cleveland Center
07:35PM 40.7144 -79.7531 106° East 116 133 6,300 660 Climbing Cleveland Center
07:36PM 40.7039 -79.7150 110° East 110 127 6,900 540 Climbing Cleveland Center
07:37PM 40.6583 -79.6833 123° Southeast  Level FlightAware Approximate
07:37PM 40.6931 -79.6711 108° East 110 127 7,400  Level Cleveland Center
07:38PM 40.6803 -79.6250 110° East 120 138 7,800 420 Climbing Cleveland Center
07:39PM 40.6694 -79.5786 107° East 126 145 8,300 480 Climbing Cleveland Center
07:40PM 40.6564 -79.5322 110° East 132 152 8,800 300 Climbing Cleveland Center
07:41PM 40.6394 -79.4858 116° Southeast 132 152 9,000 60 Climbing Cleveland Center
07:42PM 40.6119 -79.4425 130° Southeast 138 159 9,000  Level Cleveland Center
07:43PM 40.5906 -79.3964 121° Southeast 149 171 9,000  Level Cleveland Center
07:44PM 40.5669 -79.3478 123° Southeast 149 171 9,000  Level Cleveland Center
07:45PM 40.5414 -79.3017 126° Southeast 149 171 9,000  Level Cleveland Center
07:46PM 40.5119 -79.2558 130° Southeast 149 171 9,000  Level Cleveland Center
07:47PM 40.4842 -79.2072 127° Southeast 156 180 9,000  Level Cleveland Center
07:48PM 40.4564 -79.1614 129° Southeast 156 180 9,000  Level Cleveland Center
07:49PM 40.4267 -79.1158 131° Southeast 156 180 9,000  Level Cleveland Center
07:50PM 40.4031 -79.0700 124° Southeast 156 180 9,000  Level Cleveland Center
07:51PM 40.3794 -79.0158 120° Southeast 156 180 9,000  Level Cleveland Center
07:52PM 40.3600 -78.9619 115° Southeast 156 180 9,000  Level Cleveland Center
07:53PM 40.3425 -78.9106 114° Southeast 156 180 9,000  Level Cleveland Center
07:54PM 40.3250 -78.8539 112° Southeast 156 180 9,000  Level Cleveland Center
07:55PM 40.3097 -78.7997 110° East 156 180 9,000  Level Cleveland Center
07:56PM 40.2878 -78.7431 117° Southeast 162 186 9,000  Level Cleveland Center
07:57PM 40.2661 -78.6919 119° Southeast 162 186 9,000  Level Cleveland Center
07:58PM 40.2403 -78.6439 125° Southeast 157 181 9,000  Level Cleveland Center
07:59PM 40.2125 -78.5983 129° Southeast 162 186 9,000  Level Cleveland Center
08:01PM 40.1628 -78.5075 126° Southeast 162 186 9,000  Level Cleveland Center
08:02PM 40.1350 -78.4622 129° Southeast 162 186 9,000  Level Cleveland Center
08:03PM 40.1092 -78.4142 125° Southeast 167 192 9,000  Level Cleveland Center
08:04PM 40.0853 -78.3633 122° Southeast 167 192 9,000  Level Cleveland Center
08:05PM 40.0653 -78.3125 117° Southeast 162 186 9,000  Level Cleveland Center
08:06PM 40.0475 -78.2561 112° Southeast 162 186 9,000  Level Cleveland Center
08:07PM 40.0317 -78.1969 109° East 162 186 9,000  Level Cleveland Center
08:08PM 40.0139 -78.1408 112° Southeast 162 186 9,000  Level Cleveland Center
08:10PM 39.9781 -78.0261 112° Southeast 164 189 9,000  Level New York Center
08:11PM 39.9561 -77.9725 118° Southeast 164 189 9,000  Level New York Center
08:12PM 39.9364 -77.9217 117° Southeast 164 189 9,000  Level New York Center
08:13PM 39.9444 -77.8575 81° East 158 182 9,000  Level New York Center
08:14PM 39.9503 -77.7931 83° East 168 193 9,000  Level New York Center
08:15PM 39.9497 -77.7333 91° East 168 193 9,000  Level New York Center
08:17PM 39.9500 -77.6000 90° East 174 200 9,000  Level Potomac TRACON
08:18PM 39.9333 -77.5333 108° East 172 198 9,000  Level Potomac TRACON
08:19PM 39.9333 -77.4833 90° East 171 197 9,000  Level Potomac TRACON
08:20PM 39.9333 -77.4167 90° East 170 196 9,000  Level Potomac TRACON
08:21PM 39.9167 -77.3667 113° Southeast 156 180 9,000 -120 Level Potomac TRACON
08:22PM 39.8833 -77.3167 131° Southeast 159 183 8,800 -420 Descending Potomac TRACON
08:23PM 39.8500 -77.2833 142° Southeast 169 194 8,200 -600 Descending Potomac TRACON
08:24PM 39.8167 -77.2500 142° Southeast 168 193 7,700 -600 Descending Potomac TRACON
08:25PM 39.7667 -77.2167 153° Southeast 172 198 7,100 -360 Descending Potomac TRACON
08:26PM 39.7333 -77.2000 159° South 157 181 7,000 -60 Descending Potomac TRACON
08:27PM 39.7000 -77.1667 142° Southeast 143 165 7,000  Level Potomac TRACON
08:28PM 39.6500 -77.1500 166° South 149 171 7,000  Level Potomac TRACON
08:29PM 39.6167 -77.1167 142° Southeast 148 170 7,000 -300 Level Potomac TRACON
08:30PM 39.5833 -77.0833 142° Southeast 169 194 6,400 -540 Descending Potomac TRACON
08:31PM 39.5500 -77.0500 142° Southeast 170 196 6,000 -480 Descending Potomac TRACON
08:32PM 39.5167 -77.0000 131° Southeast 173 199 5,500 -480 Descending Potomac TRACON
08:33PM 39.4833 -76.9667 142° Southeast 166 191 5,000 -600 Descending Potomac TRACON
08:34PM 39.4333 -76.9667 180° South 166 191 4,300 -540 Descending Potomac TRACON
08:35PM 39.3833 -76.9667 180° South 145 167 4,000 -180 Descending Potomac TRACON
08:36PM 39.3500 -76.9667 180° South 134 154 4,000  Level Potomac TRACON
08:37PM 39.3167 -76.9667 180° South 136 157 4,000  Level Potomac TRACON
08:38PM 39.2667 -76.9667 180° South 140 161 4,000  Level Potomac TRACON
08:39PM 39.2333 -76.9500 159° South 137 158 4,000  Level Potomac TRACON
08:40PM 39.2000 -76.9500 180° South 131 151 4,000  Level Potomac TRACON
08:41PM 39.1667 -76.9500 180° South 130 150 4,000  Level Potomac TRACON
08:42PM 39.1333 -76.9500 180° South 135 155 4,000  Level Potomac TRACON
08:43PM 39.1000 -76.9500 180° South 131 151 4,000 -120 Level Potomac TRACON
08:44PM 39.0667 -76.9500 180° South 130 150 3,800 -720 Descending Potomac TRACON
08:45PM 39.0167 -76.9500 180° South 149 171 2,700 -1,260 Descending Potomac TRACON
08:46PM 38.9833 -76.9333 159° South 168 193 1,300 -900 Descending Potomac TRACON
08:47PM 38.9500 -76.9167 159° South 125 144 900 -480 Descending Potomac TRACON
08:48PM 38.9667 -76.9167 360° North 92 106 400 -540 Descending Potomac TRACON
08:50PM 38.9806 -76.9223 North  Level Estimated
08:57PM 38.9806 -76.9223 North  Level Estimated
08:58PM 38.9806 -76.9223 North  Level Estimated
08:59PM 38.9806 -76.9223 North  Level Estimated